Latest Weather Observations for Leigh Creek

IDS60801

Issued at 6:02 pm CDT Friday 9 December 2016 (issued every 30 minutes, with the page automatically refreshed every 10 minutes)

About weather observations | Map of weather stations | Latest weather observations for SA | Other Formats
Station Details ID: 017110 Name: LEIGH CREEK AIRPORT Lat: -30.60 Lon: 138.42 Height: 258.8 m
Data from the previous 72 hours. | See also: Recent months at Leigh Creek
Date/Time
CDT
Temp
°C
App
Temp
°C
Dew
Point
°C
Rel
Hum
%
Delta-T
°C
Wind Press
QNH
hPa
Press
MSL
hPa
Rain since
9am
mm
Dir  Spd
km/h
Gust
km/h
Spd
kts
Gust
kts
09/06:00pm 26.7 22.4 1.2 19 12.3 SSE 13 15 7 8 1017.4 1016.0 -
09/05:30pm 26.9 23.0 1.3 19 12.4 ESE 11 19 6 10 1017.4 1016.0 0.0
09/05:00pm 27.0 22.8 1.4 19 12.4 SE 13 28 7 15 1017.5 1016.1 0.0
09/04:30pm 26.8 22.5 1.3 19 12.3 SE 13 26 7 14 1017.7 1016.3 0.0
09/04:00pm 26.1 21.5 1.4 20 11.9 SSE 15 26 8 14 1017.7 1016.3 0.0
09/03:30pm 26.0 21.4 1.3 20 11.9 SSW 15 28 8 15 1018.1 1016.7 0.0
09/03:00pm 25.1 20.1 1.3 21 11.3 ESE 17 30 9 16 1018.5 1017.1 0.0
09/02:30pm 25.3 21.4 1.4 21 11.4 S 11 20 6 11 1018.5 1017.1 0.0
09/02:00pm 24.5 20.3 1.4 22 11.0 SSE 13 26 7 14 1018.8 1017.4 0.0
09/01:30pm 24.3 20.0 3.0 25 10.4 SSE 15 24 8 13 1019.1 1017.7 0.0
09/01:00pm 23.0 18.9 2.5 26 9.9 SSE 13 26 7 14 1019.6 1018.2 0.0
09/12:30pm 23.0 19.1 3.5 28 9.5 SE 13 26 7 14 1019.9 1018.5 0.0
09/12:00pm 22.6 18.4 3.7 29 9.2 SSE 15 26 8 14 1020.1 1018.7 0.0
09/11:30am 21.9 18.2 4.5 32 8.6 SSE 13 22 7 12 1020.1 1018.7 0.0
09/11:00am 20.8 16.6 4.0 33 8.2 SE 15 20 8 11 1020.1 1018.7 0.0
09/10:30am 20.0 16.2 3.7 34 7.8 SSE 13 20 7 11 1020.2 1018.8 0.0
09/10:00am 19.0 14.6 2.8 34 7.6 SSE 15 24 8 13 1020.0 1018.6 0.0
09/09:30am 18.2 14.5 2.1 34 7.4 S 11 20 6 11 1020.1 1018.7 0.0
09/09:00am 16.8 12.2 1.7 36 6.8 SSE 15 22 8 12 1020.2 1018.8 0.0
09/08:30am 16.4 11.5 2.1 38 6.5 SSE 17 30 9 16 1019.8 1018.4 0.0
09/08:00am 15.3 10.1 2.5 42 5.8 SSE 19 32 10 17 1019.7 1018.3 0.0
09/07:30am 14.6 9.3 2.8 45 5.3 SSE 20 35 11 19 1019.5 1018.1 0.0
09/07:00am 13.9 8.7 2.5 46 5.1 S 19 32 10 17 1019.1 1017.7 0.0
09/06:30am 13.0 8.5 2.3 48 4.7 SSE 15 26 8 14 1018.7 1017.3 0.0
09/06:00am 13.0 8.6 2.6 49 4.6 S 15 28 8 15 1018.4 1017.0 0.0
09/05:30am 13.2 9.7 3.3 51 4.5 S 11 24 6 13 1018.3 1016.9 0.0
09/05:00am 13.1 9.7 4.0 54 4.2 SSE 11 17 6 9 1018.2 1016.8 0.0
09/04:30am 13.5 9.7 4.1 53 4.3 SSE 13 24 7 13 1018.0 1016.6 0.0
09/04:00am 13.4 10.1 4.8 56 4.0 SSE 11 17 6 9 1017.6 1016.2 0.0
09/03:30am 14.0 10.4 5.1 55 4.2 SSE 13 20 7 11 1017.3 1015.8 0.0
09/03:00am 14.6 11.0 5.1 53 4.5 S 13 20 7 11 1017.2 1015.7 0.0
09/02:30am 14.9 8.9 5.4 53 4.6 S 26 33 14 18 1017.1 1015.6 0.0
09/02:00am 15.3 10.1 5.5 52 4.7 S 22 32 12 17 1017.3 1015.8 0.0
09/01:30am 15.6 10.9 6.1 53 4.6 S 20 32 11 17 1017.3 1015.8 0.0
09/01:00am 16.1 11.4 6.0 51 5.0 S 20 33 11 18 1017.1 1015.6 0.0
09/12:30am 16.7 11.7 6.5 51 5.1 S 22 35 12 19 1017.2 1015.7 0.0
09/12:00am 17.4 12.1 6.6 49 5.4 S 24 33 13 18 1017.0 1015.5 0.0
 
Date/Time
CDT
Temp
°C
App
Temp
°C
Dew
Point
°C
Rel
Hum
%
Delta-T
°C
Wind Press
QNH
hPa
Press
MSL
hPa
Rain since
9am
mm
Dir  Spd
km/h
Gust
km/h
Spd
kts
Gust
kts
08/11:30pm 18.1 13.1 6.3 46 5.9 S 22 32 12 17 1016.8 1015.3 0.0
08/11:00pm 18.8 13.3 6.0 43 6.4 S 24 39 13 21 1016.3 1014.9 0.0
08/10:30pm 19.4 13.3 4.7 38 7.2 S 26 41 14 22 1015.8 1014.4 0.0
08/10:00pm 19.9 13.3 4.0 35 7.7 S 28 43 15 23 1015.4 1014.0 0.0
08/09:30pm 20.5 13.5 4.1 34 8.0 SSW 30 43 16 23 1014.9 1013.5 0.0
08/09:00pm 20.9 13.9 2.2 29 8.8 SSW 28 39 15 21 1014.4 1013.0 0.0
08/08:30pm 21.4 13.8 2.6 29 9.0 SSW 32 43 17 23 1013.9 1012.4 0.0
08/08:04pm 22.0 14.7 2.7 28 9.3 SSW 30 48 16 26 1013.5 1012.0 0.0
08/08:00pm 22.0 14.1 2.2 27 9.4 SSW 33 48 18 26 1013.4 1011.9 0.0
08/07:30pm 22.9 14.6 1.9 25 10.0 SSW 35 52 19 28 1012.9 1011.4 0.0
08/07:00pm 23.4 14.7 1.7 24 10.3 SSW 37 56 20 30 1012.5 1011.0 0.0
08/06:33pm 24.1 15.0 1.7 23 10.7 SSW 39 57 21 31 1012.0 1010.6 0.0
08/06:30pm 24.0 14.5 1.6 23 10.7 SSW 41 57 22 31 1011.9 1010.5 0.0
08/06:00pm 24.9 16.0 3.0 24 10.8 SSW 39 59 21 32 1011.4 1010.0 0.0
08/05:52pm 24.5 15.0 2.0 23 10.8 SSW 41 59 22 32 1011.2 1009.8 0.0
08/05:30pm 24.9 16.0 3.0 24 10.8 SSW 39 54 21 29 1011.0 1009.6 0.0
08/05:00pm 24.6 15.4 3.3 25 10.5 SSW 41 59 22 32 1011.0 1009.6 0.0
08/04:30pm 25.4 16.7 4.0 25 10.8 SSW 39 63 21 34 1010.8 1009.4 0.0
08/04:07pm 25.5 16.7 3.5 24 11.0 SSW 39 61 21 33 1010.9 1009.5 0.0
08/04:00pm 24.9 16.1 3.5 25 10.6 SW 39 50 21 27 1010.8 1009.4 0.0
08/03:30pm 24.8 15.0 3.5 25 10.6 SSW 44 67 24 36 1010.9 1009.5 0.0
08/03:03pm 25.0 15.4 3.6 25 10.7 SSW 43 61 23 33 1010.7 1009.3 0.0
08/03:00pm 25.2 16.1 3.8 25 10.7 SSW 41 57 22 31 1010.9 1009.5 0.0
08/02:30pm 24.5 15.0 3.8 26 10.3 SW 43 61 23 33 1011.2 1009.8 0.0
08/02:00pm 23.7 14.7 4.6 29 9.6 SSW 41 61 22 33 1011.3 1009.9 0.0
08/01:30pm 23.4 14.5 4.9 30 9.3 SSW 41 59 22 32 1011.3 1009.9 0.0
08/01:08pm 23.3 15.2 5.2 31 9.2 SSW 37 61 20 33 1011.5 1010.1 0.0
08/01:00pm 23.4 14.7 5.8 32 9.0 SSW 41 54 22 29 1011.4 1010.0 0.0
08/12:45pm 22.3 13.8 5.3 33 8.6 SSW 39 57 21 31 1011.3 1009.9 0.0
08/12:30pm 21.7 13.6 5.2 34 8.3 SSW 37 54 20 29 1011.4 1010.0 0.0
08/12:22pm 22.1 14.5 5.9 35 8.3 SSW 35 54 19 29 1011.5 1010.1 0.0
08/12:00pm 21.8 13.0 5.7 35 8.2 SSW 41 56 22 30 1011.3 1009.9 0.0
08/11:30am 20.4 10.9 4.8 36 7.7 SSW 44 57 24 31 1011.3 1009.9 0.0
08/11:00am 20.2 10.8 4.7 36 7.6 SSW 43 59 23 32 1011.4 1010.0 0.0
08/10:30am 19.6 10.1 6.7 43 6.6 SSW 46 65 25 35 1011.2 1009.8 0.0
08/10:29am 19.0 9.5 6.5 44 6.3 SSW 46 65 25 35 1011.1 1009.7 0.0
08/10:00am 18.9 9.3 8.0 49 5.7 SSW 48 65 26 35 1010.9 1009.5 0.0
08/09:30am 18.6 8.9 9.1 54 5.0 SSW 50 65 27 35 1010.4 1008.9 0.0
08/09:00am 18.0 9.2 11.1 64 3.8 SSW 48 63 26 34 1010.0 1008.5 0.0
08/08:30am 18.6 11.0 11.9 65 3.7 SSW 43 57 23 31 1009.9 1008.4 0.0
08/08:14am 18.3 9.6 9.9 58 4.5 SSW 46 67 25 36 1009.5 1008.0 0.0
08/08:00am 18.3 11.1 13.2 72 2.9 SW 43 54 23 29 1009.3 1007.8 0.0
08/07:30am 19.3 14.0 14.3 73 2.9 SSW 35 56 19 30 1008.7 1007.2 0.0
08/07:12am 20.1 14.4 15.3 74 2.9 SSW 39 57 21 31 1007.7 1006.3 0.0
08/07:00am 20.6 16.0 16.0 75 2.8 SW 35 48 19 26 1007.3 1005.9 0.0
08/06:48am 21.6 18.7 17.0 75 2.8 SW 28 46 15 25 1007.1 1005.7 0.0
08/06:30am 23.1 21.7 18.8 77 2.8 SW 24 32 13 17 1006.8 1005.3 0.0
08/06:00am 23.2 22.4 18.5 75 3.0 WSW 20 30 11 16 1006.4 1004.9 0.0
08/05:30am 23.3 26.1 18.0 72 3.4 CALM 0 0 0 0 1006.5 1005.0 0.0
08/05:00am 23.8 23.5 17.3 67 4.1 SW 15 20 8 11 1006.5 1005.0 0.0
08/04:30am 24.9 21.0 15.5 56 5.8 W 30 43 16 23 1006.7 1005.2 0.0
08/04:21am 25.3 23.0 14.7 51 6.4 NW 20 41 11 22 1006.7 1005.2 0.0
08/04:00am 24.3 22.3 13.8 52 6.2 NNW 17 20 9 11 1005.5 1004.0 0.0
08/03:30am 24.4 22.4 13.9 52 6.3 N 17 20 9 11 1005.0 1003.5 0.0
08/03:00am 24.1 22.0 13.6 52 6.2 N 17 24 9 13 1004.9 1003.4 0.0
08/02:30am 24.6 21.8 13.2 49 6.7 N 20 24 11 13 1005.0 1003.5 0.0
08/02:00am 24.5 21.7 13.1 49 6.7 NNW 20 24 11 13 1005.9 1004.4 0.0
08/01:30am 24.9 22.0 12.8 47 7.1 N 20 26 11 14 1006.1 1004.6 0.0
08/01:00am 25.3 22.4 12.9 46 7.3 N 20 26 11 14 1005.9 1004.4 0.0
08/12:30am 25.7 21.9 12.5 44 7.7 N 24 28 13 15 1006.5 1005.0 0.0
08/12:00am 26.3 22.5 12.4 42 8.1 N 24 33 13 18 1007.1 1005.7 0.0
 
Date/Time
CDT
Temp
°C
App
Temp
°C
Dew
Point
°C
Rel
Hum
%
Delta-T
°C
Wind Press
QNH
hPa
Press
MSL
hPa
Rain since
9am
mm
Dir  Spd
km/h
Gust
km/h
Spd
kts
Gust
kts
07/11:30pm 26.3 23.1 12.0 41 8.3 N 20 24 11 13 1008.1 1006.7 0.0
07/11:00pm 26.7 23.5 11.2 38 8.9 N 19 24 10 13 1008.3 1006.9 0.0
07/10:30pm 27.5 24.1 11.1 36 9.5 N 20 28 11 15 1008.1 1006.7 0.0
07/10:00pm 27.8 24.3 10.9 35 9.7 N 20 26 11 14 1008.3 1006.9 0.0
07/09:30pm 28.3 24.8 10.9 34 10.0 N 20 28 11 15 1008.5 1007.0 0.0
07/09:00pm 28.4 25.4 10.6 33 10.2 N 17 20 9 11 1008.5 1007.0 0.0
07/08:30pm 29.1 26.0 10.3 31 10.8 N 17 20 9 11 1008.5 1007.0 0.0
07/08:00pm 30.0 26.4 10.0 29 11.4 N 19 24 10 13 1008.5 1007.0 0.0
07/07:30pm 31.3 27.8 10.1 27 12.2 N 19 26 10 14 1008.6 1007.1 0.0
07/07:00pm 31.6 28.0 9.8 26 12.5 N 19 26 10 14 1008.6 1007.1 0.0
07/06:30pm 31.7 28.0 9.3 25 12.8 NNW 19 28 10 15 1008.8 1007.3 0.0
07/06:00pm 32.7 28.8 9.5 24 13.3 NNW 20 28 11 15 1008.9 1007.4 0.0
07/05:30pm 32.9 29.2 10.3 25 13.2 NNW 20 30 11 16 1009.1 1007.6 0.0
07/05:00pm 32.8 29.8 10.8 26 12.9 N 17 28 9 15 1009.4 1007.9 0.0
07/04:30pm 31.8 27.8 10.5 27 12.4 NNW 22 37 12 20 1009.9 1008.4 0.0
07/04:00pm 32.3 28.0 10.9 27 12.5 N 24 35 13 19 1010.2 1008.7 0.0
07/03:30pm 32.4 28.2 11.0 27 12.6 NNW 24 39 13 21 1010.7 1009.3 0.0
07/03:00pm 31.7 29.1 12.0 30 11.7 N 17 32 9 17 1011.2 1009.8 0.0
07/02:30pm 32.0 28.9 12.3 30 11.8 N 20 32 11 17 1011.6 1010.2 0.0
07/02:00pm 32.4 29.4 13.6 32 11.5 NNE 22 33 12 18 1012.2 1010.8 0.0
07/01:30pm 29.3 26.6 13.5 38 9.5 NNE 20 33 11 18 1012.8 1011.3 0.0
07/01:00pm 29.1 26.6 14.1 40 9.1 N 20 32 11 17 1013.5 1012.0 0.0
07/12:30pm 28.3 25.8 15.2 44 8.1 N 22 33 12 18 1014.1 1012.7 0.0
07/12:00pm 27.6 25.4 15.9 49 7.3 N 22 28 12 15 1014.6 1013.2 0.0
07/11:30am 26.9 25.4 16.8 54 6.3 N 20 30 11 16 1015.1 1013.7 0.0
07/11:00am 25.5 23.9 17.4 61 5.1 N 22 30 12 16 1015.5 1014.1 0.0
07/10:30am 25.1 24.7 18.1 65 4.5 NNE 17 28 9 15 1015.8 1014.4 0.0
07/10:00am 22.5 21.7 17.2 72 3.3 NNE 17 20 9 11 1016.0 1014.6 0.0
07/09:30am 21.4 20.9 17.0 76 2.7 NNE 15 20 8 11 1016.2 1014.8 0.0
07/09:00am 21.4 22.0 18.6 84 1.8 N 13 15 7 8 1016.2 1014.8 0.0
07/08:30am 20.4 20.6 18.5 89 1.2 N 15 17 8 9 1016.3 1014.9 0.0
07/08:00am 20.2 20.8 18.7 91 0.9 N 13 15 7 8 1016.4 1015.0 0.0
07/07:30am 19.8 20.7 19.3 97 0.3 NNW 13 17 7 9 1016.3 1014.9 0.0
07/07:00am 19.7 21.6 19.0 96 0.4 NNE 7 9 4 5 1015.8 1014.4 0.0
07/06:30am 19.4 21.2 18.7 96 0.4 NNE 7 9 4 5 1015.4 1014.0 0.0
07/06:00am 19.4 20.5 18.9 97 0.3 NNE 11 15 6 8 1015.3 1013.9 0.0
07/05:30am 19.2 20.4 19.0 99 0.1 NNE 11 15 6 8 1014.9 1013.5 0.0
07/05:00am 19.1 20.2 18.9 99 0.1 N 11 15 6 8 1014.7 1013.3 0.0
07/04:30am 18.6 20.3 18.4 99 0.1 N 7 9 4 5 1014.5 1013.1 0.0
07/04:00am 18.1 19.7 17.9 99 0.1 N 6 7 3 4 1014.2 1012.8 0.0
07/03:30am 18.3 20.3 17.8 97 0.3 N 4 7 2 4 1013.9 1012.4 0.0
07/03:00am 18.8 20.4 18.3 97 0.3 N 7 9 4 5 1013.9 1012.4 0.0
07/02:30am 19.4 22.4 18.4 94 0.6 CALM 0 0 0 0 1014.0 1012.6 0.0
07/02:00am 19.7 21.7 19.2 97 0.3 N 7 11 4 6 1014.4 1013.0 0.0
07/01:30am 19.3 21.0 18.6 96 0.4 N 7 9 4 5 1014.8 1013.4 0.0
07/01:00am 19.5 19.7 18.5 94 0.6 N 15 17 8 9 1015.1 1013.7 0.0
07/12:30am 19.5 19.8 17.8 90 1.1 ENE 13 15 7 8 1015.3 1013.9 0.0
07/12:00am 19.5 20.0 17.5 88 1.2 SSE 11 15 6 8 1015.4 1014.0 0.0
 
Date/Time
CDT
Temp
°C
App
Temp
°C
Dew
Point
°C
Rel
Hum
%
Delta-T
°C
Wind Press
QNH
hPa
Press
MSL
hPa
Rain since
9am
mm
Dir  Spd
km/h
Gust
km/h
Spd
kts
Gust
kts
06/11:30pm 19.7 20.5 16.3 81 2.1 SSE 7 9 4 5 1015.7 1014.3 0.0
06/11:00pm 20.3 20.9 15.3 73 3.0 SSE 6 15 3 8 1015.7 1014.3 0.0
06/10:30pm 21.5 23.3 15.6 69 3.6 CALM 0 0 0 0 1015.4 1014.0 0.0
06/10:00pm 21.8 23.8 16.1 70 3.5 CALM 0 0 0 0 1015.3 1013.9 0.0
06/09:30pm 22.0 23.8 15.6 67 3.9 CALM 0 0 0 0 1015.3 1013.9 0.0
06/09:00pm 23.0 24.7 15.3 62 4.7 CALM 0 0 0 0 1015.4 1014.0 0.0
06/08:30pm 23.9 25.5 14.9 57 5.4 CALM 0 0 0 0 1015.3 1013.9 0.0
06/08:00pm 25.0 26.0 13.2 48 6.9 CALM 0 0 0 0 1015.1 1013.7 0.0
06/07:30pm 25.7 26.8 13.5 46 7.2 CALM 0 0 0 0 1015.0 1013.6 0.0
06/07:00pm 25.9 27.0 13.4 46 7.4 CALM 0 0 0 0 1014.7 1013.3 0.0
06/06:30pm 25.3 25.4 13.8 49 6.8 SSE 6 9 3 5 1014.7 1013.3 0.0

Other Formats:

Comma delimited format used in spreadsheet applications
http://www.bom.gov.au/fwo/IDS60801/IDS60801.94674.axf

JavaScript Object Notation format (JSON) in row-major order
http://www.bom.gov.au/fwo/IDS60801/IDS60801.94674.json